createdAt,value
2019-05-18T00:00:29.763Z,24.70
2019-05-18T00:01:29.735Z,22.90
2019-05-18T00:02:29.722Z,23.80
2019-05-18T00:03:29.723Z,24.10
2019-05-18T00:04:29.716Z,23.00
2019-05-18T00:05:29.729Z,23.80
2019-05-18T00:06:29.681Z,24.50
2019-05-18T00:07:29.679Z,24.50
2019-05-18T00:08:29.650Z,23.20
2019-05-18T00:09:29.652Z,24.10
2019-05-18T00:10:29.666Z,24.60
2019-05-18T00:11:29.621Z,25.40
2019-05-18T00:12:29.610Z,24.00
2019-05-18T00:13:29.601Z,23.70
2019-05-18T00:14:29.592Z,23.50
2019-05-18T00:15:29.610Z,23.30
2019-05-18T00:16:29.562Z,23.50
2019-05-18T00:17:29.547Z,24.10
2019-05-18T00:18:29.542Z,24.20
2019-05-18T00:19:29.528Z,23.70
2019-05-18T00:20:29.560Z,24.20
2019-05-18T00:21:29.528Z,23.70
2019-05-18T00:22:29.497Z,23.90
2019-05-18T00:23:29.483Z,24.10
2019-05-18T00:24:29.471Z,25.20
2019-05-18T00:25:29.465Z,25.20
2019-05-18T00:26:29.460Z,25.90
2019-05-18T00:27:29.431Z,25.60
2019-05-18T00:28:29.424Z,27.20
2019-05-18T00:29:29.416Z,25.90
2019-05-18T00:30:29.414Z,30.50
2019-05-18T00:31:29.412Z,32.00
2019-05-18T00:32:29.400Z,29.10
2019-05-18T00:33:29.381Z,32.40
2019-05-18T00:34:29.359Z,36.40
2019-05-18T00:35:29.355Z,30.80
2019-05-18T00:36:29.370Z,30.50
2019-05-18T00:37:29.330Z,29.40
2019-05-18T00:38:29.337Z,29.40
2019-05-18T00:39:29.322Z,26.40
2019-05-18T00:40:29.384Z,26.00
2019-05-18T00:41:29.301Z,25.30
2019-05-18T00:42:29.270Z,25.60
2019-05-18T00:43:29.281Z,25.90
2019-05-18T00:44:29.246Z,27.30
2019-05-18T00:45:29.234Z,25.70
2019-05-18T00:46:29.235Z,28.20
2019-05-18T00:47:40.851Z,27.20
2019-05-18T00:48:30.214Z,25.80
2019-05-18T00:49:29.203Z,28.00
2019-05-18T00:50:29.177Z,26.30
2019-05-18T00:51:29.178Z,27.60
2019-05-18T00:52:29.163Z,26.90
2019-05-18T00:53:29.168Z,26.60
2019-05-18T00:54:29.147Z,25.80
2019-05-18T00:55:29.116Z,27.90
2019-05-18T00:56:29.128Z,27.30
2019-05-18T00:57:29.097Z,29.00
2019-05-18T00:58:30.601Z,26.60
2019-05-18T00:59:29.074Z,28.00
2019-05-18T01:00:29.075Z,28.10
2019-05-18T01:01:29.080Z,27.60
2019-05-18T01:02:29.042Z,27.30
2019-05-18T01:03:29.033Z,25.90
2019-05-18T01:04:29.018Z,27.90
2019-05-18T01:05:29.014Z,28.00
2019-05-18T01:06:29.013Z,27.20
2019-05-18T01:07:28.985Z,26.30
2019-05-18T01:08:28.973Z,26.30
2019-05-18T01:09:28.965Z,27.30
2019-05-18T01:10:28.950Z,28.30
2019-05-18T01:11:28.957Z,28.00
2019-05-18T01:12:28.927Z,27.00
2019-05-18T01:13:28.919Z,29.40
2019-05-18T01:14:28.905Z,28.10
2019-05-18T01:15:28.905Z,28.30
2019-05-18T01:16:28.921Z,28.20
2019-05-18T01:17:28.889Z,28.40
2019-05-18T01:18:28.859Z,27.50
2019-05-18T01:19:28.848Z,27.60
2019-05-18T01:20:28.841Z,28.50
2019-05-18T01:21:28.824Z,27.50
2019-05-18T01:22:28.828Z,29.30
2019-05-18T01:23:28.802Z,30.50
2019-05-18T01:24:28.790Z,29.20
2019-05-18T01:25:28.778Z,28.10
2019-05-18T01:26:28.770Z,29.50
2019-05-18T01:27:28.780Z,28.10
2019-05-18T01:28:28.750Z,31.20
2019-05-18T01:29:28.737Z,29.80
2019-05-18T01:30:28.719Z,28.80
2019-05-18T01:31:28.713Z,29.30
2019-05-18T01:32:28.719Z,29.30
2019-05-18T01:33:28.692Z,32.30
2019-05-18T01:34:28.693Z,29.50
2019-05-18T01:35:28.670Z,29.30
2019-05-18T01:36:28.653Z,31.80
2019-05-18T01:37:28.665Z,29.00
2019-05-18T01:38:28.645Z,31.60
2019-05-18T01:39:28.621Z,29.00
2019-05-18T01:40:28.611Z,30.00
2019-05-18T01:41:28.597Z,29.60
2019-05-18T01:42:28.604Z,30.40
2019-05-18T01:43:28.577Z,29.00
2019-05-18T01:44:28.563Z,30.60
2019-05-18T01:45:28.561Z,31.00
2019-05-18T01:46:28.543Z,31.90
2019-05-18T01:47:28.552Z,30.80
2019-05-18T01:48:28.517Z,30.80
2019-05-18T01:49:28.507Z,35.10
2019-05-18T01:50:28.497Z,32.70
2019-05-18T01:51:28.501Z,32.00
2019-05-18T01:52:28.502Z,33.50
2019-05-18T01:53:28.516Z,32.00
2019-05-18T01:54:28.456Z,31.70
2019-05-18T01:55:28.443Z,29.20
2019-05-18T01:56:28.434Z,31.00
2019-05-18T01:57:28.450Z,32.10
2019-05-18T01:58:28.423Z,33.40
2019-05-18T01:59:28.397Z,32.70
2019-05-18T02:00:28.383Z,32.80
2019-05-18T02:01:28.369Z,31.80
2019-05-18T02:02:28.377Z,33.30
2019-05-18T02:03:28.353Z,33.10
2019-05-18T02:04:28.338Z,31.30
2019-05-18T02:05:28.332Z,33.90
2019-05-18T02:06:28.314Z,31.00
2019-05-18T02:07:28.320Z,31.90
2019-05-18T02:08:28.309Z,32.40
2019-05-18T02:09:28.285Z,33.00
2019-05-18T02:10:28.273Z,33.10
2019-05-18T02:11:28.264Z,35.10
2019-05-18T02:12:28.265Z,34.40
2019-05-18T02:13:28.242Z,35.20
2019-05-18T02:14:28.223Z,31.90
2019-05-18T02:15:28.218Z,32.90
2019-05-18T02:16:28.199Z,31.70
2019-05-18T02:17:28.227Z,33.10
2019-05-18T02:18:29.394Z,34.40
2019-05-18T02:19:28.176Z,31.60
2019-05-18T02:20:28.172Z,34.70
2019-05-18T02:21:28.141Z,32.00
2019-05-18T02:22:28.158Z,34.30
2019-05-18T02:23:28.118Z,33.40
2019-05-18T02:24:28.113Z,33.20
2019-05-18T02:25:28.112Z,33.90
2019-05-18T02:26:28.085Z,34.20
2019-05-18T02:27:28.122Z,37.00
2019-05-18T02:28:28.085Z,35.10
2019-05-18T02:29:28.054Z,36.70
2019-05-18T02:30:28.057Z,35.50
2019-05-18T02:31:28.036Z,33.60
2019-05-18T02:32:28.016Z,35.50
2019-05-18T02:33:28.027Z,37.00
2019-05-18T02:34:27.998Z,35.80
2019-05-18T02:35:27.994Z,36.10
2019-05-18T02:36:27.988Z,36.50
2019-05-18T02:37:27.967Z,38.30
2019-05-18T02:38:27.968Z,36.30
2019-05-18T02:39:27.950Z,36.90
2019-05-18T02:40:27.928Z,33.60
2019-05-18T02:41:27.917Z,37.40
2019-05-18T02:42:30.681Z,35.30
2019-05-18T02:43:27.920Z,35.20
2019-05-18T02:44:27.898Z,35.00
2019-05-18T02:45:27.877Z,36.10
2019-05-18T02:46:27.857Z,38.10
2019-05-18T02:47:27.854Z,37.00
2019-05-18T02:48:27.865Z,36.00
2019-05-18T02:49:27.831Z,37.40
2019-05-18T02:50:27.818Z,37.10
2019-05-18T02:51:27.803Z,36.10
2019-05-18T02:52:27.795Z,37.60
2019-05-18T02:53:27.807Z,36.50
2019-05-18T02:54:27.772Z,37.50
2019-05-18T02:55:27.759Z,36.00
2019-05-18T02:56:27.748Z,38.40
2019-05-18T02:57:27.736Z,37.00
2019-05-18T02:58:27.816Z,36.40
2019-05-18T02:59:27.713Z,37.40
2019-05-18T03:00:27.707Z,37.70
2019-05-18T03:01:27.694Z,37.80
2019-05-18T03:02:27.692Z,38.50
2019-05-18T03:03:27.700Z,39.00
2019-05-18T03:04:27.663Z,39.60
2019-05-18T03:05:27.648Z,41.20
2019-05-18T03:06:27.638Z,39.60
2019-05-18T03:07:27.628Z,40.00
2019-05-18T03:08:27.638Z,38.20
2019-05-18T03:09:27.601Z,37.80
2019-05-18T03:10:27.595Z,39.20
2019-05-18T03:11:27.580Z,39.70
2019-05-18T03:12:27.570Z,39.80
2019-05-18T03:13:27.579Z,39.30
2019-05-18T03:14:27.549Z,41.70
2019-05-18T03:15:27.544Z,38.60
2019-05-18T03:16:27.528Z,40.90
2019-05-18T03:17:27.515Z,37.10
2019-05-18T03:18:27.586Z,38.00
2019-05-18T03:19:27.497Z,40.90
2019-05-18T03:20:27.482Z,38.50
2019-05-18T03:21:27.474Z,39.90
2019-05-18T03:22:27.466Z,38.70
2019-05-18T03:23:27.459Z,40.40
2019-05-18T03:24:27.437Z,41.80
2019-05-18T03:25:27.418Z,42.60
2019-05-18T03:26:27.415Z,40.70
2019-05-18T03:27:27.409Z,39.70
2019-05-18T03:28:27.437Z,40.60
2019-05-18T03:29:27.394Z,41.60
2019-05-18T03:30:27.381Z,41.70
2019-05-18T03:31:27.354Z,39.20
2019-05-18T03:32:27.360Z,40.60
2019-05-18T03:33:29.651Z,39.00
2019-05-18T03:34:27.383Z,37.70
2019-05-18T03:35:27.308Z,40.00
2019-05-18T03:36:27.310Z,39.70
2019-05-18T03:37:27.292Z,38.30
2019-05-18T03:38:27.285Z,39.70
2019-05-18T03:39:27.288Z,39.00
2019-05-18T03:40:27.252Z,39.30
2019-05-18T03:41:27.239Z,42.00
2019-05-18T03:42:27.234Z,39.80
2019-05-18T03:43:27.229Z,43.10
2019-05-18T03:44:27.239Z,38.90
2019-05-18T03:45:27.201Z,39.30
2019-05-18T03:46:27.185Z,39.80
2019-05-18T03:47:27.179Z,41.20
2019-05-18T03:48:27.166Z,41.20
2019-05-18T03:49:27.811Z,40.10
2019-05-18T03:50:27.150Z,41.80
2019-05-18T03:51:27.130Z,43.90
2019-05-18T03:52:27.111Z,40.70
2019-05-18T03:53:27.106Z,40.40
2019-05-18T03:54:27.112Z,42.10
2019-05-18T03:55:27.100Z,42.40
2019-05-18T03:56:27.162Z,41.30
2019-05-18T03:57:27.068Z,40.20
2019-05-18T03:58:27.056Z,39.50
2019-05-18T03:59:27.062Z,39.60
2019-05-18T04:00:27.031Z,41.80
2019-05-18T04:01:27.017Z,41.80
2019-05-18T04:02:27.010Z,44.20
2019-05-18T04:03:26.992Z,41.30
2019-05-18T04:04:27.005Z,41.50
2019-05-18T04:05:26.977Z,41.10
2019-05-18T04:06:26.964Z,39.80
2019-05-18T04:07:26.951Z,40.30
2019-05-18T04:08:26.944Z,40.70
2019-05-18T04:09:26.948Z,39.90
2019-05-18T04:10:26.918Z,42.40
2019-05-18T04:11:26.900Z,42.20
2019-05-18T04:12:26.896Z,39.20
2019-05-18T04:13:26.886Z,42.00
2019-05-18T04:14:26.887Z,41.70
2019-05-18T04:15:26.866Z,41.80
2019-05-18T04:16:26.845Z,42.20
2019-05-18T04:17:26.841Z,42.70
2019-05-18T04:18:26.825Z,41.20
2019-05-18T04:19:44.742Z,40.50
2019-05-18T04:20:27.797Z,44.20
2019-05-18T04:21:26.803Z,41.10
2019-05-18T04:22:26.779Z,43.00
2019-05-18T04:23:26.785Z,41.00
2019-05-18T04:24:26.785Z,40.20
2019-05-18T04:25:26.743Z,41.50
2019-05-18T04:26:26.734Z,41.90
2019-05-18T04:27:26.727Z,44.30
2019-05-18T04:28:26.708Z,43.00
2019-05-18T04:29:26.714Z,40.90
2019-05-18T04:30:26.687Z,44.90
2019-05-18T04:31:26.676Z,45.20
2019-05-18T04:32:26.664Z,44.20
2019-05-18T04:33:26.677Z,44.90
2019-05-18T04:34:26.654Z,43.50
2019-05-18T04:35:26.632Z,46.00
2019-05-18T04:36:26.716Z,45.80
2019-05-18T04:37:26.604Z,44.00
2019-05-18T04:38:26.613Z,45.50
2019-05-18T04:39:26.601Z,47.90
2019-05-18T04:40:26.588Z,43.50
2019-05-18T04:41:26.564Z,43.80
2019-05-18T04:42:26.553Z,47.90
2019-05-18T04:43:26.548Z,46.70
2019-05-18T04:44:26.543Z,46.70
2019-05-18T04:45:26.517Z,43.30
2019-05-18T04:46:26.508Z,47.80
2019-05-18T04:47:26.507Z,45.30
2019-05-18T04:48:26.485Z,46.40
2019-05-18T04:49:26.499Z,45.30
2019-05-18T04:50:26.460Z,45.90
2019-05-18T04:51:26.501Z,44.90
2019-05-18T04:52:26.441Z,44.50
2019-05-18T04:53:26.428Z,45.70
2019-05-18T04:54:26.432Z,45.50
2019-05-18T04:55:26.421Z,48.60
2019-05-18T04:56:26.399Z,47.00
2019-05-18T04:57:26.387Z,46.30
2019-05-18T04:58:26.376Z,46.60
2019-05-18T04:59:26.390Z,47.60
2019-05-18T05:00:26.345Z,48.20
2019-05-18T05:01:26.341Z,45.30
2019-05-18T05:02:26.330Z,43.00
2019-05-18T05:03:26.318Z,47.00
2019-05-18T05:04:26.319Z,43.40
2019-05-18T05:05:26.292Z,46.60
2019-05-18T05:06:26.284Z,46.80
2019-05-18T05:07:26.271Z,46.40
2019-05-18T05:08:26.257Z,47.10
2019-05-18T05:09:26.263Z,46.30
2019-05-18T05:10:26.236Z,49.00
2019-05-18T05:11:26.237Z,51.20
2019-05-18T05:12:26.285Z,44.50
2019-05-18T05:13:26.216Z,48.10
2019-05-18T05:14:27.097Z,48.80
2019-05-18T05:15:26.231Z,47.00
2019-05-18T05:16:26.191Z,45.90
2019-05-18T05:17:26.219Z,46.80
2019-05-18T05:18:26.302Z,43.60
2019-05-18T05:19:26.172Z,46.90
2019-05-18T05:20:26.769Z,44.20
2019-05-18T05:21:26.485Z,47.90
2019-05-18T05:22:26.111Z,44.00
2019-05-18T05:23:26.085Z,44.60
2019-05-18T05:24:26.447Z,45.70
2019-05-18T05:25:26.614Z,45.00
2019-05-18T05:26:26.078Z,46.90
2019-05-18T05:27:26.184Z,45.70
2019-05-18T05:28:26.159Z,43.70
2019-05-18T05:29:26.103Z,44.00
2019-05-18T05:30:26.080Z,44.40
2019-05-18T05:31:26.040Z,44.50
2019-05-18T05:32:26.065Z,43.20
2019-05-18T05:33:25.974Z,43.70
2019-05-18T05:34:26.067Z,44.10
2019-05-18T05:35:25.948Z,45.60
2019-05-18T05:36:25.940Z,43.60
2019-05-18T05:37:25.931Z,41.20
2019-05-18T05:38:25.915Z,43.30
2019-05-18T05:39:25.933Z,46.40
2019-05-18T05:40:25.899Z,41.00
2019-05-18T05:41:25.885Z,41.90
2019-05-18T05:42:25.879Z,43.00
2019-05-18T05:43:25.863Z,40.80
2019-05-18T05:44:25.870Z,39.70
2019-05-18T05:45:25.835Z,39.20
2019-05-18T05:46:25.827Z,39.30
2019-05-18T05:47:25.817Z,38.10
2019-05-18T05:48:25.812Z,38.60
2019-05-18T05:49:25.817Z,38.20
2019-05-18T05:50:35.367Z,37.40
2019-05-18T05:51:26.810Z,37.20
2019-05-18T05:52:25.757Z,37.40
2019-05-18T05:53:25.747Z,36.50
2019-05-18T05:54:25.770Z,35.80
2019-05-18T05:55:25.725Z,35.30
2019-05-18T05:56:25.709Z,34.90
2019-05-18T05:57:25.705Z,35.80
2019-05-18T05:58:25.729Z,35.20
2019-05-18T05:59:25.727Z,38.60
2019-05-18T06:00:25.663Z,37.10
2019-05-18T06:01:25.663Z,37.70
2019-05-18T06:02:25.648Z,35.20
2019-05-18T06:03:25.631Z,33.60
2019-05-18T06:04:25.649Z,31.50
2019-05-18T06:05:25.624Z,32.80
2019-05-18T06:06:25.594Z,30.30
2019-05-18T06:07:25.592Z,30.00
2019-05-18T06:08:25.595Z,29.90
2019-05-18T06:09:25.600Z,29.30
2019-05-18T06:10:25.560Z,29.40
2019-05-18T06:11:25.538Z,28.80
2019-05-18T06:12:25.535Z,28.60
2019-05-18T06:13:25.521Z,30.10
2019-05-18T06:14:25.516Z,30.50
2019-05-18T06:15:25.520Z,28.70
2019-05-18T06:16:25.479Z,29.80
2019-05-18T06:17:25.469Z,28.10
2019-05-18T06:18:25.469Z,27.80
2019-05-18T06:19:25.453Z,27.10
2019-05-18T06:20:25.455Z,26.40
2019-05-18T06:21:25.425Z,27.50
2019-05-18T06:22:25.414Z,26.90
2019-05-18T06:23:25.402Z,25.10
2019-05-18T06:24:25.393Z,24.60
2019-05-18T06:25:25.404Z,26.20
2019-05-18T06:26:25.382Z,25.80
2019-05-18T06:27:25.368Z,25.30
2019-05-18T06:28:25.344Z,25.70
2019-05-18T06:29:25.338Z,22.70
2019-05-18T06:30:25.355Z,24.30
2019-05-18T06:31:25.313Z,23.80
2019-05-18T06:32:25.306Z,24.90
2019-05-18T06:33:25.296Z,22.40
2019-05-18T06:34:25.286Z,22.60
2019-05-18T06:35:25.381Z,22.00
2019-05-18T06:36:25.269Z,19.70
2019-05-18T06:37:25.261Z,18.50
2019-05-18T06:38:25.235Z,19.20
2019-05-18T06:39:25.223Z,16.70
2019-05-18T06:40:25.243Z,16.90
2019-05-18T06:41:25.200Z,16.20
2019-05-18T06:42:25.187Z,16.30
2019-05-18T06:43:25.179Z,17.10
2019-05-18T06:44:25.170Z,18.60
2019-05-18T06:45:25.191Z,18.50
2019-05-18T06:46:25.143Z,17.20
2019-05-18T06:47:25.127Z,16.70
2019-05-18T06:48:25.117Z,15.40
2019-05-18T06:49:25.127Z,15.10
2019-05-18T06:50:25.120Z,13.30
2019-05-18T06:51:25.115Z,14.90
2019-05-18T06:52:25.097Z,14.90
2019-05-18T06:53:25.064Z,15.70
2019-05-18T06:54:25.051Z,17.30
2019-05-18T06:55:25.046Z,15.40
2019-05-18T06:56:25.051Z,13.90
2019-05-18T06:57:25.020Z,15.10
2019-05-18T06:58:25.008Z,15.20
2019-05-18T06:59:24.999Z,15.30
2019-05-18T07:00:24.984Z,15.80
2019-05-18T07:01:24.988Z,17.90
2019-05-18T07:02:24.962Z,16.60
2019-05-18T07:03:24.991Z,16.00
2019-05-18T07:04:24.947Z,14.70
2019-05-18T07:05:24.993Z,16.70
2019-05-18T07:06:25.006Z,15.00
2019-05-18T07:07:24.922Z,14.60
2019-05-18T07:08:24.892Z,15.40
2019-05-18T07:09:24.889Z,15.70
2019-05-18T07:10:24.869Z,13.70
2019-05-18T07:11:24.887Z,13.80
2019-05-18T07:12:24.878Z,14.90
2019-05-18T07:13:24.858Z,15.80
2019-05-18T07:14:26.134Z,14.60
2019-05-18T07:15:24.813Z,14.60
2019-05-18T07:16:24.803Z,15.00
2019-05-18T07:17:24.803Z,15.40
2019-05-18T07:18:24.788Z,14.00
2019-05-18T07:19:24.773Z,13.90
2019-05-18T07:20:24.756Z,13.80
2019-05-18T07:21:24.743Z,15.80
2019-05-18T07:22:24.756Z,13.70
2019-05-18T07:23:24.718Z,13.30
2019-05-18T07:24:24.714Z,13.70
2019-05-18T07:25:24.709Z,13.90
2019-05-18T07:26:24.721Z,12.10
2019-05-18T07:27:24.697Z,11.90
2019-05-18T07:28:24.675Z,12.50
2019-05-18T07:29:24.655Z,12.50
2019-05-18T07:30:24.645Z,12.40
2019-05-18T07:31:24.634Z,11.30
2019-05-18T07:32:24.638Z,10.90
2019-05-18T07:33:24.607Z,13.00
2019-05-18T09:07:47.058Z,9.30
2019-05-18T09:08:47.031Z,8.70
2019-05-18T09:09:47.043Z,9.40
2019-05-18T09:10:47.004Z,10.40
2019-05-18T09:11:47.004Z,10.00
2019-05-18T09:12:46.989Z,11.10
2019-05-18T09:13:46.979Z,9.60
2019-05-18T09:14:46.991Z,9.70
2019-05-18T09:15:46.955Z,11.80
2019-05-18T09:16:46.945Z,9.40
2019-05-18T09:17:46.931Z,9.60
2019-05-18T09:18:46.916Z,11.00
2019-05-18T09:19:46.936Z,10.10
2019-05-18T09:20:46.895Z,9.40
2019-05-18T09:21:46.880Z,9.70
2019-05-18T09:22:46.879Z,8.10
2019-05-18T09:23:46.864Z,10.00
2019-05-18T09:24:46.872Z,10.70
2019-05-18T09:25:46.848Z,10.00
2019-05-18T09:26:46.851Z,11.10
2019-05-18T09:27:46.821Z,9.50
2019-05-18T09:28:46.820Z,9.90
2019-05-18T09:29:46.815Z,8.60
2019-05-18T09:30:46.781Z,15.70
2019-05-18T09:31:46.770Z,9.10
2019-05-18T09:32:46.780Z,9.50
2019-05-18T09:33:46.753Z,10.00
2019-05-18T09:34:46.763Z,9.40
2019-05-18T09:35:46.727Z,8.60
2019-05-18T09:36:46.719Z,7.90
2019-05-18T09:37:46.707Z,9.10
2019-05-18T09:38:47.579Z,9.50
2019-05-18T09:39:47.512Z,8.40
2019-05-18T09:40:46.677Z,7.40
2019-05-18T09:41:46.665Z,8.30
2019-05-18T09:42:46.649Z,12.80
2019-05-18T09:43:46.671Z,10.80
2019-05-18T09:44:46.679Z,10.60
2019-05-18T09:45:46.620Z,7.40
2019-05-18T09:46:46.605Z,7.10
2019-05-18T09:47:46.596Z,11.30
2019-05-18T09:48:46.589Z,8.00
2019-05-18T09:49:46.584Z,8.30
2019-05-18T09:50:46.559Z,7.50
2019-05-18T09:51:46.551Z,8.10
2019-05-18T09:52:46.697Z,10.10
2019-05-18T09:53:51.523Z,7.40
2019-05-18T09:54:47.535Z,6.30
2019-05-18T09:55:46.505Z,6.70
2019-05-18T09:56:46.492Z,6.20
2019-05-18T09:57:46.487Z,5.80
2019-05-18T09:58:46.465Z,25.90
2019-05-18T09:59:46.460Z,7.90
2019-05-18T10:00:46.459Z,8.50
2019-05-18T11:29:12.118Z,5.40
2019-05-18T11:30:12.032Z,11.30
2019-05-18T11:31:12.010Z,6.30
2019-05-18T11:32:12.015Z,5.30
2019-05-18T11:33:12.017Z,9.10
2019-05-18T11:34:11.979Z,6.10
2019-05-18T11:35:11.963Z,5.00
2019-05-18T11:36:11.952Z,6.10
2019-05-18T11:37:11.965Z,5.40
2019-05-18T11:38:11.937Z,5.30
2019-05-18T11:39:11.929Z,6.90
2019-05-18T11:40:11.943Z,3.90
2019-05-18T11:41:11.913Z,4.50
2019-05-18T11:42:12.109Z,3.80
2019-05-18T11:43:11.903Z,4.40
2019-05-18T11:44:11.907Z,3.90
2019-05-18T11:45:11.904Z,5.50
2019-05-18T11:46:11.877Z,4.30
2019-05-18T11:47:11.898Z,4.10
2019-05-18T11:48:11.866Z,5.20
2019-05-18T11:49:11.841Z,4.10
2019-05-18T11:50:11.850Z,4.60
2019-05-18T11:51:11.822Z,5.50
2019-05-18T11:52:11.837Z,3.20
2019-05-18T11:53:11.800Z,4.30
2019-05-18T11:54:11.792Z,3.50
2019-05-18T11:55:11.784Z,4.40
2019-05-18T11:56:11.774Z,3.50
2019-05-18T11:57:11.830Z,5.20
2019-05-18T11:58:11.765Z,3.70
2019-05-18T11:59:15.377Z,4.60
2019-05-18T12:00:12.522Z,5.10
2019-05-18T12:01:11.731Z,3.30
2019-05-18T12:02:11.723Z,4.30
2019-05-18T12:03:11.745Z,3.50
2019-05-18T12:04:11.726Z,4.30
2019-05-18T12:05:11.697Z,5.10
2019-05-18T12:06:11.681Z,3.80
2019-05-18T12:07:11.686Z,4.30
2019-05-18T12:08:11.685Z,4.90
2019-05-18T12:09:11.674Z,4.00
2019-05-18T12:10:11.636Z,4.50
2019-05-18T12:11:11.636Z,3.40
2019-05-18T12:12:11.628Z,4.00
2019-05-18T12:13:11.627Z,4.20
2019-05-18T12:14:11.598Z,4.70
2019-05-18T12:15:11.596Z,3.40
2019-05-18T12:16:11.572Z,3.50
2019-05-18T12:17:11.583Z,3.30
2019-05-18T12:18:11.576Z,3.30
2019-05-18T12:19:11.546Z,4.20
2019-05-18T12:20:11.529Z,3.90
2019-05-18T12:21:11.518Z,4.00
2019-05-18T12:22:11.509Z,3.60
2019-05-18T12:23:11.524Z,7.10
2019-05-18T12:24:15.307Z,4.10
2019-05-18T12:25:11.482Z,4.70
2019-05-18T12:26:11.468Z,4.10
2019-05-18T12:27:11.458Z,4.60
2019-05-18T12:28:11.449Z,4.00
2019-05-18T12:29:11.456Z,3.80
2019-05-18T12:30:11.425Z,5.60
2019-05-18T12:31:11.494Z,3.60
2019-05-18T12:32:11.399Z,4.30
2019-05-18T12:33:11.390Z,3.40
2019-05-18T12:34:11.389Z,3.90
2019-05-18T12:35:11.379Z,4.20
2019-05-18T12:36:11.407Z,5.00
2019-05-18T12:37:11.342Z,5.20
2019-05-18T12:38:11.335Z,3.70
2019-05-18T12:39:11.339Z,3.20
2019-05-18T12:40:11.370Z,3.10
2019-05-18T12:41:11.317Z,4.90
2019-05-18T12:42:11.292Z,3.40
2019-05-18T12:43:11.278Z,3.40
2019-05-18T12:44:11.315Z,3.00
2019-05-18T12:45:11.257Z,5.20
2019-05-18T12:46:11.255Z,3.50
2019-05-18T12:47:14.270Z,5.50
2019-05-18T12:48:11.217Z,4.80
2019-05-18T12:49:11.233Z,3.80
2019-05-18T12:50:11.198Z,3.40
2019-05-18T12:51:11.194Z,3.60
2019-05-18T12:52:11.189Z,6.10
2019-05-18T12:53:11.165Z,4.60
2019-05-18T12:54:11.180Z,5.90
2019-05-18T12:55:11.145Z,9.60
2019-05-18T12:56:11.132Z,9.70
2019-05-18T12:57:11.120Z,9.20
2019-05-18T12:58:11.119Z,5.80
2019-05-18T12:59:11.128Z,14.00
2019-05-18T13:00:11.094Z,19.10
2019-05-18T13:01:11.081Z,25.90
2019-05-18T13:02:11.071Z,27.30
2019-05-18T13:03:11.062Z,8.60
2019-05-18T13:04:11.086Z,19.50
2019-05-18T13:05:11.032Z,21.90
2019-05-18T13:06:11.020Z,33.40
2019-05-18T13:07:11.026Z,33.00
2019-05-18T13:08:10.995Z,6.50
2019-05-18T13:09:11.007Z,31.90
2019-05-18T13:10:11.015Z,49.10
2019-05-18T13:11:10.971Z,19.90
2019-05-18T13:12:11.838Z,22.30
2019-05-18T13:13:10.945Z,17.70
2019-05-18T13:14:10.935Z,17.10
2019-05-18T13:15:10.941Z,13.30
2019-05-18T13:16:10.923Z,22.00
2019-05-18T13:17:10.902Z,13.40
2019-05-18T13:18:10.894Z,14.20
2019-05-18T13:19:10.886Z,20.30
2019-05-18T13:20:13.545Z,17.90
2019-05-18T13:21:10.857Z,30.10
2019-05-18T13:22:10.861Z,11.80
2019-05-18T13:23:10.842Z,19.30
2019-05-18T13:24:10.823Z,10.40
2019-05-18T13:25:10.830Z,17.00
2019-05-18T13:26:10.811Z,22.10
2019-05-18T13:27:10.795Z,11.20
2019-05-18T13:28:10.779Z,18.40
2019-05-18T13:29:10.779Z,4.90
2019-05-18T13:30:10.788Z,14.90
2019-05-18T13:31:10.746Z,5.50
2019-05-18T13:32:10.748Z,8.10
2019-05-18T13:33:10.742Z,6.90
2019-05-18T13:34:10.715Z,4.70
2019-05-18T13:35:10.725Z,5.50
2019-05-18T13:36:10.699Z,10.80
2019-05-18T13:37:10.678Z,6.10
2019-05-18T13:38:10.674Z,5.20
2019-05-18T13:39:10.658Z,6.00
2019-05-18T13:40:10.685Z,3.60
2019-05-18T13:41:10.644Z,5.00
2019-05-18T13:42:10.626Z,5.80
2019-05-18T13:43:10.620Z,4.20
2019-05-18T13:44:10.608Z,3.10
2019-05-18T13:45:10.623Z,5.60
2019-05-18T13:46:10.641Z,5.20
2019-05-18T13:47:10.574Z,6.60
2019-05-18T13:48:10.559Z,8.80
2019-05-18T13:49:10.558Z,9.60
2019-05-18T13:50:10.564Z,6.80
2019-05-18T13:51:10.524Z,14.70
2019-05-18T13:52:10.513Z,8.00
2019-05-18T13:53:10.501Z,10.30
2019-05-18T13:54:10.489Z,8.10
2019-05-18T13:55:10.527Z,4.90
2019-05-18T13:56:10.470Z,16.00
2019-05-18T13:57:10.463Z,13.60
2019-05-18T13:58:10.449Z,9.00
2019-05-18T13:59:10.451Z,12.80
2019-05-18T14:00:10.423Z,12.60
2019-05-18T14:01:10.432Z,15.90
2019-05-18T14:02:10.401Z,11.20
2019-05-18T14:03:10.393Z,11.10
2019-05-18T14:04:10.383Z,4.80
2019-05-18T14:05:10.388Z,6.70
2019-05-18T14:06:10.397Z,4.00
2019-05-18T14:07:10.367Z,4.60
2019-05-18T14:08:15.488Z,4.50
2019-05-18T14:09:11.344Z,7.20
2019-05-18T14:10:12.433Z,10.40
2019-05-18T14:11:10.337Z,6.80
2019-05-18T14:12:10.303Z,6.70
2019-05-18T14:13:10.297Z,4.60
2019-05-18T14:14:10.271Z,5.00
2019-05-18T14:15:10.262Z,6.30
2019-05-18T14:16:10.593Z,7.50
2019-05-18T14:17:10.239Z,15.20
2019-05-18T14:18:10.237Z,8.20
2019-05-18T14:19:10.214Z,6.50
2019-05-18T14:20:10.239Z,4.80
2019-05-18T14:21:10.198Z,6.70
2019-05-18T14:22:10.203Z,5.00
2019-05-18T14:23:10.172Z,3.50
2019-05-18T14:24:10.167Z,4.60
2019-05-18T14:25:19.481Z,4.80
2019-05-18T14:26:11.137Z,4.70
2019-05-18T14:27:10.152Z,3.90
2019-05-18T14:28:10.124Z,4.90
2019-05-18T14:29:10.114Z,3.50
2019-05-18T14:30:10.104Z,10.40
2019-05-18T14:31:10.087Z,6.20
2019-05-18T14:32:11.053Z,5.10
2019-05-18T14:33:10.065Z,2.30
2019-05-18T14:34:10.050Z,3.40
2019-05-18T14:35:10.056Z,8.50
2019-05-18T14:36:10.072Z,3.70
2019-05-18T14:37:10.048Z,4.60
2019-05-18T14:38:10.003Z,2.50
2019-05-18T14:39:09.997Z,3.40
2019-05-18T14:40:09.987Z,2.80
2019-05-18T14:41:09.980Z,3.50
2019-05-18T14:42:09.989Z,3.10
2019-05-18T14:43:09.976Z,4.80
2019-05-18T14:44:09.939Z,2.80
2019-05-18T14:45:09.954Z,5.00
2019-05-18T14:46:09.915Z,5.70
2019-05-18T14:47:09.907Z,8.60
2019-05-18T14:48:10.001Z,4.20
2019-05-18T14:49:09.885Z,8.50
2019-05-18T14:50:09.881Z,7.70
2019-05-18T14:51:09.874Z,3.80
2019-05-18T14:52:12.132Z,2.90
2019-05-18T14:53:09.859Z,3.60
2019-05-18T14:54:09.830Z,5.40
2019-05-18T14:55:09.831Z,6.10
2019-05-18T14:56:09.802Z,4.20
2019-05-18T14:57:09.794Z,5.00
2019-05-18T14:58:09.820Z,9.70
2019-05-18T14:59:09.785Z,5.20
2019-05-18T15:00:09.799Z,6.60
2019-05-18T15:01:09.749Z,4.30
2019-05-18T15:02:09.747Z,2.50
2019-05-18T15:03:09.735Z,2.80
2019-05-18T15:04:09.730Z,5.70
2019-05-18T15:05:09.727Z,10.00
2019-05-18T15:06:09.695Z,7.10
2019-05-18T15:07:09.684Z,3.90
2019-05-18T15:08:09.674Z,5.50
2019-05-18T15:09:09.680Z,5.90
2019-05-18T15:10:09.665Z,4.70
2019-05-18T15:11:09.640Z,2.60
2019-05-18T15:12:09.632Z,6.10
2019-05-18T15:13:09.615Z,4.00
2019-05-18T15:14:09.626Z,5.20
2019-05-18T15:15:09.597Z,3.60
2019-05-18T15:16:09.591Z,4.80
2019-05-18T15:17:09.570Z,4.30
2019-05-18T15:18:09.565Z,5.60
2019-05-18T15:19:09.561Z,3.70
2019-05-18T15:20:09.539Z,3.40
2019-05-18T15:21:09.533Z,5.10
2019-05-18T15:22:09.531Z,4.80
2019-05-18T15:23:09.525Z,3.50
2019-05-18T15:24:09.521Z,6.60
2019-05-18T15:25:09.484Z,8.30
2019-05-18T15:26:09.477Z,6.00
2019-05-18T15:27:09.473Z,5.30
2019-05-18T15:28:09.452Z,8.60
2019-05-18T15:29:09.456Z,7.50
2019-05-18T15:30:09.430Z,14.40
2019-05-18T15:31:09.415Z,6.80
2019-05-18T15:32:09.406Z,7.30
2019-05-18T15:33:09.398Z,9.20
2019-05-18T15:34:09.398Z,7.90
2019-05-18T15:35:09.376Z,3.50
2019-05-18T15:36:09.360Z,4.50
2019-05-18T15:37:09.362Z,4.10
2019-05-18T15:38:09.344Z,5.30
2019-05-18T15:39:09.352Z,3.00
2019-05-18T15:40:09.317Z,3.40
2019-05-18T15:41:09.314Z,2.80
2019-05-18T15:42:09.291Z,3.40
2019-05-18T15:43:09.278Z,3.50
2019-05-18T15:44:09.299Z,3.00
2019-05-18T15:45:09.280Z,3.90
2019-05-18T15:46:09.250Z,5.90
2019-05-18T15:47:09.247Z,3.80
2019-05-18T15:48:09.226Z,5.10
2019-05-18T15:49:09.261Z,3.00
2019-05-18T15:50:09.206Z,3.90
2019-05-18T15:51:09.201Z,3.60
2019-05-18T15:52:09.182Z,3.80
2019-05-18T15:53:09.166Z,4.10
2019-05-18T15:54:09.174Z,3.30
2019-05-18T15:55:09.146Z,3.60
2019-05-18T15:56:09.146Z,4.40
2019-05-18T15:57:09.128Z,3.90
2019-05-18T15:58:09.123Z,2.90
2019-05-18T15:59:09.120Z,2.80
2019-05-18T16:00:09.100Z,2.50
2019-05-18T16:01:09.083Z,3.00
2019-05-18T16:02:09.077Z,2.80